AirNav   Pilot Hours Calculator
 
 865 users online  

68IL Stichnoth Airport
Milford, Illinois, USA

GOING TO MILFORD?


FAA INFORMATION EFFECTIVE 01 DECEMBER 2022

Location

FAA Identifier: 68IL
Lat/Long: 40-36-49.0000N 087-33-44.0000W
40-36.816667N 087-33.733333W
40.6136111,-87.5622222
(estimated)
Elevation: 700 ft. / 213 m
From city: 5 miles E of MILFORD, IL
Time zone: UTC -6 (UTC -5 during Daylight Saving Time)
Zip code: 60953

Airport Operations

Airport use: Private use. Permission required prior to landing
Activation date: 12/2016
Control tower: no
ARTCC: CHICAGO CENTER
FSS: KANKAKEE FLIGHT SERVICE STATION
Attendance: 
Wind indicator: yes
Segmented circle: no

Nearby radio navigation aids

VOR radial/distance  VOR name  Freq  Var
DNVr357/19.2DANVILLE VORTAC111.0002E
BVTr278/22.7BOILER VORTAC115.1001E
RBSr084/27.5ROBERTS VOR/DME116.8002E

Airport Services

Runway Information

Runway 9/27

Dimensions: 2600 x 100 ft. / 792 x 30 m
Surface: turf, in good condition
RUNWAY 9  RUNWAY 27
Traffic pattern: leftleft
Displaced threshold: no300 ft.
Obstructions: noneroad, 10 ft. from runway, 20:1 slope to clear

Airport Ownership and Management from official FAA records

Ownership: Privately-owned
Owner: MARVIN & SHERRILL STICHNOTH
2836 E 1160 NORTH ROAD
MILFORD, IL 60953
Phone 815-682-4498
Manager: MARVIN STICHNOTH
2836 E 1160 NORTH ROAD
MILFORD, IL 60953
Phone 815-682-4498

Airport Operational Statistics

Aircraft based on the field: 1
Single engine airplanes: 1
    

Additional Remarks

FOR CD CTC CHICAGO ARTCC AT 630-906-8921.

Instrument Procedures

There are no published instrument procedures at 68IL.

Some nearby airports with instrument procedures:

50I - Kentland Municipal Airport (11 nm NE)
KDNV - Vermilion Regional Airport (25 nm S)
KRZL - Jasper County Airport (26 nm NE)
1C1 - Paxton Airport (28 nm W)
KIKK - Greater Kankakee Airport (30 nm NW)
 
Loc | Ops | Rwys | IFR | FBO | Links
Com | Nav | Svcs | Stats | Notes
Aerial photo
No photo
 
Airport distance calculator
Flying to Stichnoth Airport? Find the distance to fly.

From to 68IL

Sunrise and sunset
Times for 07-Dec-2022
 Local
(UTC-6)
 Zulu
(UTC)
Morning civil twilight06:3112:31
Sunrise07:0113:01
Sunset16:2222:22
Evening civil twilight16:5322:53

Current date and time
Zulu (UTC)  07-Dec-2022 12:20:10
Local (UTC-6)  07-Dec-2022 06:20:10
 
METAR
KDNV 
25nm S 
071155Z AUTO 33003KT 3SM BR OVC017 05/04 A3016 RMK AO2 T00470038 10056 20044
KRZL 
26nm NE 
071135Z AUTO 00000KT 2SM BR SCT005 OVC011 04/03 A3017 RMK AO2
KIKK 
30nm NW 
071155Z AUTO 35003KT 5SM BR OVC010 04/03 A3017 RMK AO2 T00430030 10048 20043
KLAF 
30nm SE 
071201Z 00000KT 6SM BR SCT015 04/03 A3016 RMK AO2 T00440028
KTIP 
33nm SW 
071155Z AUTO 34003KT 2 1/2SM BR SCT004 OVC012 04/04 A3016 RMK AO2 T00420040 10048 20042
KMCX 
37nm E 
071135Z AUTO 00000KT 10SM OVC015 04/03 A3014 RMK AO2 T00430031
KCMI 
47nm SW 
071153Z AUTO 01005KT 5SM BR OVC012 06/04 A3016 RMK AO2 SLP219 70001 T00560039 10061 20028 53011
KCFJ 
48nm SE 
062035Z AUTO 04004KT 10SM OVC014 07/02 A2997 RMK AO2 T00680016
TAF
KLAF 
30nm SE 
071120Z 0712/0812 35003KT 6SM BR FEW005 BKN015 TEMPO 0712/0714 4SM BR OVC009 FM071500 34003KT 6SM BR SCT010 BKN020 FM071800 34004KT P6SM SCT012 BKN025 FM072300 01003KT 5SM BR BKN011 FM080300 03003KT 3SM BR BKN009 AMD LTD TO CLD VIS AND WIND TIL 071400
NOTAMs
Click for the latest NOTAMs
NOTAMs are issued by the DoD/FAA and will open in a separate window not controlled by AirNav.

 

 
 

Would you like to see your business listed on this page?

 If your business provides an interesting product or service to pilots, flight crews, aircraft, or users of the Stichnoth Airport, you should consider listing it here.  To start the listing process, click on the button below
 
Add a business
 

Other Pages about Stichnoth Airport

Update a link
 
Copyright © AirNav, LLC. All rights reserved. Privacy Policy  Contact